sensor_id;sensor_type;location;lat;lon;timestamp;temperature;humidity
1958;DHT22;979;51.076;13.748;2024-03-06T05:40:17;4.20;67.90
1958;DHT22;979;51.076;13.748;2024-03-06T05:43:10;4.20;67.90
1958;DHT22;979;51.076;13.748;2024-03-06T05:46:12;4.10;67.90
1958;DHT22;979;51.076;13.748;2024-03-06T05:49:05;4.10;68.60
1958;DHT22;979;51.076;13.748;2024-03-06T05:52:14;4.10;68.10
1958;DHT22;979;51.076;13.748;2024-03-06T05:55:24;4.20;68.30
1958;DHT22;979;51.076;13.748;2024-03-06T05:58:17;4.10;68.30
1958;DHT22;979;51.076;13.748;2024-03-06T06:05:58;4.00;67.90
1958;DHT22;979;51.076;13.748;2024-03-06T06:08:40;4.10;68.20
1958;DHT22;979;51.076;13.748;2024-03-06T06:15:02;4.20;68.80
1958;DHT22;979;51.076;13.748;2024-03-06T06:17:57;4.20;68.80
1958;DHT22;979;51.076;13.748;2024-03-06T06:20:56;4.20;69.20
1958;DHT22;979;51.076;13.748;2024-03-06T06:26:44;4.30;69.30
1958;DHT22;979;51.076;13.748;2024-03-06T06:29:37;4.50;70.20
1958;DHT22;979;51.076;13.748;2024-03-06T06:32:24;4.40;70.00
1958;DHT22;979;51.076;13.748;2024-03-06T06:35:01;4.60;70.10
1958;DHT22;979;51.076;13.748;2024-03-06T06:37:53;4.70;70.20
1958;DHT22;979;51.076;13.748;2024-03-06T06:40:27;4.70;70.10
1958;DHT22;979;51.076;13.748;2024-03-06T06:43:24;4.90;69.90
1958;DHT22;979;51.076;13.748;2024-03-06T06:46:22;4.70;69.50
1958;DHT22;979;51.076;13.748;2024-03-06T06:49:09;5.00;70.30
1958;DHT22;979;51.076;13.748;2024-03-06T06:51:55;4.80;70.30
1958;DHT22;979;51.076;13.748;2024-03-06T06:54:56;4.90;70.30
1958;DHT22;979;51.076;13.748;2024-03-06T06:57:48;5.00;70.80
1958;DHT22;979;51.076;13.748;2024-03-06T07:00:33;5.10;70.50
1958;DHT22;979;51.076;13.748;2024-03-06T07:06:20;5.10;70.90
1958;DHT22;979;51.076;13.748;2024-03-06T07:12:22;5.30;70.70
1958;DHT22;979;51.076;13.748;2024-03-06T07:15:35;5.40;70.50
1958;DHT22;979;51.076;13.748;2024-03-06T07:18:04;5.40;70.60
1958;DHT22;979;51.076;13.748;2024-03-06T07:20:33;5.50;70.40
1958;DHT22;979;51.076;13.748;2024-03-06T07:23:04;5.40;70.50
1958;DHT22;979;51.076;13.748;2024-03-06T07:25:33;5.50;70.40
1958;DHT22;979;51.076;13.748;2024-03-06T07:28:04;5.50;70.40
1958;DHT22;979;51.076;13.748;2024-03-06T07:30:33;5.50;70.40
1958;DHT22;979;51.076;13.748;2024-03-06T07:33:06;5.60;70.70
1958;DHT22;979;51.076;13.748;2024-03-06T07:35:41;5.60;70.70
1958;DHT22;979;51.076;13.748;2024-03-06T07:38:18;5.70;70.40
1958;DHT22;979;51.076;13.748;2024-03-06T07:40:48;5.90;70.90
1958;DHT22;979;51.076;13.748;2024-03-06T07:43:19;5.80;70.70
1958;DHT22;979;51.076;13.748;2024-03-06T07:45:48;5.90;71.00
1958;DHT22;979;51.076;13.748;2024-03-06T07:48:19;6.00;70.80
1958;DHT22;979;51.076;13.748;2024-03-06T07:50:53;6.10;71.00
1958;DHT22;979;51.076;13.748;2024-03-06T07:53:27;6.20;70.90
1958;DHT22;979;51.076;13.748;2024-03-06T07:55:56;6.20;70.90
1958;DHT22;979;51.076;13.748;2024-03-06T07:58:25;6.30;71.00
1958;DHT22;979;51.076;13.748;2024-03-06T08:00:55;6.40;71.10
1958;DHT22;979;51.076;13.748;2024-03-06T08:03:24;6.50;71.20
1958;DHT22;979;51.076;13.748;2024-03-06T08:05:53;6.50;70.80
1958;DHT22;979;51.076;13.748;2024-03-06T08:08:23;6.60;71.00
1958;DHT22;979;51.076;13.748;2024-03-06T08:11:04;6.70;71.30
1958;DHT22;979;51.076;13.748;2024-03-06T08:13:43;6.70;71.20
1958;DHT22;979;51.076;13.748;2024-03-06T08:16:30;6.80;71.20
1958;DHT22;979;51.076;13.748;2024-03-06T08:19:03;6.90;71.20
1958;DHT22;979;51.076;13.748;2024-03-06T08:21:39;7.00;71.20
1958;DHT22;979;51.076;13.748;2024-03-06T08:24:08;7.20;71.30
1958;DHT22;979;51.076;13.748;2024-03-06T08:26:54;7.40;71.60
1958;DHT22;979;51.076;13.748;2024-03-06T08:29:24;7.50;71.30
1958;DHT22;979;51.076;13.748;2024-03-06T08:31:52;7.50;71.00
1958;DHT22;979;51.076;13.748;2024-03-06T08:34:25;7.70;71.30
1958;DHT22;979;51.076;13.748;2024-03-06T08:36:54;7.70;71.10
1958;DHT22;979;51.076;13.748;2024-03-06T08:39:23;7.80;72.00
1958;DHT22;979;51.076;13.748;2024-03-06T08:41:57;7.90;71.70
1958;DHT22;979;51.076;13.748;2024-03-06T08:44:30;8.00;71.50
1958;DHT22;979;51.076;13.748;2024-03-06T08:46:59;8.20;71.40
1958;DHT22;979;51.076;13.748;2024-03-06T08:49:28;8.20;71.40
1958;DHT22;979;51.076;13.748;2024-03-06T08:51:57;8.40;71.60
1958;DHT22;979;51.076;13.748;2024-03-06T08:54:27;8.50;71.40
1958;DHT22;979;51.076;13.748;2024-03-06T08:56:59;8.50;71.40
1958;DHT22;979;51.076;13.748;2024-03-06T08:59:30;8.60;71.10
1958;DHT22;979;51.076;13.748;2024-03-06T09:08:00;8.80;70.30
1958;DHT22;979;51.076;13.748;2024-03-06T09:10:34;8.90;70.90
1958;DHT22;979;51.076;13.748;2024-03-06T09:13:07;8.90;70.70
1958;DHT22;979;51.076;13.748;2024-03-06T09:15:38;9.00;70.90
1958;DHT22;979;51.076;13.748;2024-03-06T09:18:08;9.10;70.80
1958;DHT22;979;51.076;13.748;2024-03-06T09:20:37;9.10;71.10
1958;DHT22;979;51.076;13.748;2024-03-06T09:23:06;9.20;70.50
1958;DHT22;979;51.076;13.748;2024-03-06T09:25:40;9.20;70.50
1958;DHT22;979;51.076;13.748;2024-03-06T09:28:16;9.50;70.40
1958;DHT22;979;51.076;13.748;2024-03-06T09:30:45;9.30;70.20
1958;DHT22;979;51.076;13.748;2024-03-06T09:33:14;9.40;70.40
1958;DHT22;979;51.076;13.748;2024-03-06T09:35:43;9.50;70.20
1958;DHT22;979;51.076;13.748;2024-03-06T09:38:13;9.40;70.10
1958;DHT22;979;51.076;13.748;2024-03-06T09:40:46;9.50;69.80
1958;DHT22;979;51.076;13.748;2024-03-06T09:43:18;9.40;69.80
1958;DHT22;979;51.076;13.748;2024-03-06T09:45:50;9.60;69.80
1958;DHT22;979;51.076;13.748;2024-03-06T09:48:21;9.60;69.40
1958;DHT22;979;51.076;13.748;2024-03-06T09:50:51;9.60;69.70
1958;DHT22;979;51.076;13.748;2024-03-06T09:53:26;9.80;69.60
1958;DHT22;979;51.076;13.748;2024-03-06T09:55:58;9.60;69.50
1958;DHT22;979;51.076;13.748;2024-03-06T09:58:31;9.70;69.60
1958;DHT22;979;51.076;13.748;2024-03-06T10:01:01;9.70;69.40
1958;DHT22;979;51.076;13.748;2024-03-06T10:03:32;9.80;69.60
1958;DHT22;979;51.076;13.748;2024-03-06T10:06:01;9.70;69.60
1958;DHT22;979;51.076;13.748;2024-03-06T10:08:36;9.80;69.60
1958;DHT22;979;51.076;13.748;2024-03-06T10:11:12;9.80;69.70
1958;DHT22;979;51.076;13.748;2024-03-06T10:13:59;10.00;68.60
1958;DHT22;979;51.076;13.748;2024-03-06T10:16:31;10.10;68.30
1958;DHT22;979;51.076;13.748;2024-03-06T10:19:18;10.20;68.50
1958;DHT22;979;51.076;13.748;2024-03-06T10:21:48;10.30;68.30
1958;DHT22;979;51.076;13.748;2024-03-06T10:24:21;10.30;68.00
1958;DHT22;979;51.076;13.748;2024-03-06T10:27:06;10.40;67.80
1958;DHT22;979;51.076;13.748;2024-03-06T10:29:37;10.50;68.20
1958;DHT22;979;51.076;13.748;2024-03-06T10:32:06;10.70;67.90
1958;DHT22;979;51.076;13.748;2024-03-06T10:34:38;10.70;67.80
1958;DHT22;979;51.076;13.748;2024-03-06T10:37:09;10.90;67.60
1958;DHT22;979;51.076;13.748;2024-03-06T10:39:45;11.00;67.70
1958;DHT22;979;51.076;13.748;2024-03-06T10:42:28;11.20;67.30
1958;DHT22;979;51.076;13.748;2024-03-06T10:45:06;11.20;67.00
1958;DHT22;979;51.076;13.748;2024-03-06T10:48:03;11.40;67.00
1958;DHT22;979;51.076;13.748;2024-03-06T10:50:41;11.40;66.50
1958;DHT22;979;51.076;13.748;2024-03-06T10:53:27;11.30;66.20
1958;DHT22;979;51.076;13.748;2024-03-06T10:56:10;11.40;66.00
1958;DHT22;979;51.076;13.748;2024-03-06T10:58:56;11.50;66.30
1958;DHT22;979;51.076;13.748;2024-03-06T11:01:30;11.60;65.90
1958;DHT22;979;51.076;13.748;2024-03-06T11:04:04;11.60;66.60
1958;DHT22;979;51.076;13.748;2024-03-06T11:06:39;11.60;65.20
1958;DHT22;979;51.076;13.748;2024-03-06T11:09:08;11.60;65.00
1958;DHT22;979;51.076;13.748;2024-03-06T11:11:49;11.60;65.40
1958;DHT22;979;51.076;13.748;2024-03-06T11:14:50;11.60;65.00
1958;DHT22;979;51.076;13.748;2024-03-06T11:17:30;11.70;65.20
1958;DHT22;979;51.076;13.748;2024-03-06T11:20:13;11.60;64.30
1958;DHT22;979;51.076;13.748;2024-03-06T11:23:07;11.70;64.10
1958;DHT22;979;51.076;13.748;2024-03-06T11:26:02;11.70;63.80
1958;DHT22;979;51.076;13.748;2024-03-06T11:28:37;11.60;63.70
1958;DHT22;979;51.076;13.748;2024-03-06T11:31:09;11.60;63.50
1958;DHT22;979;51.076;13.748;2024-03-06T11:33:46;11.50;63.40
1958;DHT22;979;51.076;13.748;2024-03-06T11:36:20;11.50;63.70
1958;DHT22;979;51.076;13.748;2024-03-06T11:38:52;11.50;63.60
1958;DHT22;979;51.076;13.748;2024-03-06T11:41:29;11.50;63.40
1958;DHT22;979;51.076;13.748;2024-03-06T11:44:06;11.60;63.50
1958;DHT22;979;51.076;13.748;2024-03-06T11:46:44;11.70;63.80
1958;DHT22;979;51.076;13.748;2024-03-06T11:52:28;12.30;64.60
1958;DHT22;979;51.076;13.748;2024-03-06T11:54:58;13.20;64.40
1958;DHT22;979;51.076;13.748;2024-03-06T11:57:31;14.00;63.80
1958;DHT22;979;51.076;13.748;2024-03-06T12:00:10;14.80;62.70
1958;DHT22;979;51.076;13.748;2024-03-06T12:02:43;15.60;61.60
1958;DHT22;979;51.076;13.748;2024-03-06T12:05:17;16.40;60.70
1958;DHT22;979;51.076;13.748;2024-03-06T12:07:52;17.10;60.10
1958;DHT22;979;51.076;13.748;2024-03-06T12:10:23;18.00;59.50
1958;DHT22;979;51.076;13.748;2024-03-06T12:12:56;18.80;58.60
1958;DHT22;979;51.076;13.748;2024-03-06T12:15:27;19.80;58.10
1958;DHT22;979;51.076;13.748;2024-03-06T12:17:59;20.50;56.60
1958;DHT22;979;51.076;13.748;2024-03-06T12:20:29;20.90;55.80
1958;DHT22;979;51.076;13.748;2024-03-06T12:23:04;21.80;54.50
1958;DHT22;979;51.076;13.748;2024-03-06T12:25:36;22.30;53.80
1958;DHT22;979;51.076;13.748;2024-03-06T12:28:09;22.90;53.80
1958;DHT22;979;51.076;13.748;2024-03-06T12:30:41;23.70;53.20
1958;DHT22;979;51.076;13.748;2024-03-06T12:33:17;24.50;52.40
1958;DHT22;979;51.076;13.748;2024-03-06T12:36:02;25.30;51.70
1958;DHT22;979;51.076;13.748;2024-03-06T12:38:39;25.80;49.80
1958;DHT22;979;51.076;13.748;2024-03-06T12:41:15;25.90;48.90
1958;DHT22;979;51.076;13.748;2024-03-06T12:43:51;26.10;48.80
1958;DHT22;979;51.076;13.748;2024-03-06T12:46:29;26.30;48.10
1958;DHT22;979;51.076;13.748;2024-03-06T12:49:25;26.40;46.60
1958;DHT22;979;51.076;13.748;2024-03-06T12:51:57;25.40;45.70
1958;DHT22;979;51.076;13.748;2024-03-06T12:54:33;25.40;47.10
1958;DHT22;979;51.076;13.748;2024-03-06T12:57:06;25.00;45.90
1958;DHT22;979;51.076;13.748;2024-03-06T12:59:50;24.40;45.80
1958;DHT22;979;51.076;13.748;2024-03-06T13:02:25;23.40;46.10
1958;DHT22;979;51.076;13.748;2024-03-06T13:04:54;22.70;46.20
1958;DHT22;979;51.076;13.748;2024-03-06T13:07:41;21.90;46.40
1958;DHT22;979;51.076;13.748;2024-03-06T13:10:28;20.80;45.60
1958;DHT22;979;51.076;13.748;2024-03-06T13:13:03;19.30;45.00
1958;DHT22;979;51.076;13.748;2024-03-06T13:15:57;18.30;46.10
1958;DHT22;979;51.076;13.748;2024-03-06T13:18:43;17.40;46.70
1958;DHT22;979;51.076;13.748;2024-03-06T13:21:36;16.60;47.00
1958;DHT22;979;51.076;13.748;2024-03-06T13:24:25;15.80;47.30
1958;DHT22;979;51.076;13.748;2024-03-06T13:27:22;15.50;48.90
1958;DHT22;979;51.076;13.748;2024-03-06T13:29:52;16.20;50.20
1958;DHT22;979;51.076;13.748;2024-03-06T13:32:24;17.80;50.50
1958;DHT22;979;51.076;13.748;2024-03-06T13:34:57;18.90;48.80
1958;DHT22;979;51.076;13.748;2024-03-06T13:37:32;19.00;47.70
1958;DHT22;979;51.076;13.748;2024-03-06T13:40:22;18.70;47.10
1958;DHT22;979;51.076;13.748;2024-03-06T13:43:01;17.90;46.50
1958;DHT22;979;51.076;13.748;2024-03-06T13:45:34;17.00;46.60
1958;DHT22;979;51.076;13.748;2024-03-06T13:48:24;16.40;47.20
1958;DHT22;979;51.076;13.748;2024-03-06T13:51:01;15.80;47.40
1958;DHT22;979;51.076;13.748;2024-03-06T13:53:45;15.40;47.90
1958;DHT22;979;51.076;13.748;2024-03-06T13:56:26;15.50;48.80
1958;DHT22;979;51.076;13.748;2024-03-06T13:58:57;16.40;50.00
1958;DHT22;979;51.076;13.748;2024-03-06T14:01:28;17.90;50.40
1958;DHT22;979;51.076;13.748;2024-03-06T14:03:58;19.10;49.40
1958;DHT22;979;51.076;13.748;2024-03-06T14:06:47;19.40;47.70
1958;DHT22;979;51.076;13.748;2024-03-06T14:09:30;18.80;46.70
1958;DHT22;979;51.076;13.748;2024-03-06T14:12:00;18.00;46.70
1958;DHT22;979;51.076;13.748;2024-03-06T14:14:31;17.30;46.60
1958;DHT22;979;51.076;13.748;2024-03-06T14:17:01;16.60;46.50
1958;DHT22;979;51.076;13.748;2024-03-06T14:19:30;15.90;46.70
1958;DHT22;979;51.076;13.748;2024-03-06T14:22:01;16.30;48.40
1958;DHT22;979;51.076;13.748;2024-03-06T14:24:33;16.00;47.80
1958;DHT22;979;51.076;13.748;2024-03-06T14:27:02;16.10;47.70
1958;DHT22;979;51.076;13.748;2024-03-06T14:29:56;15.80;47.30
1958;DHT22;979;51.076;13.748;2024-03-06T14:32:31;15.40;47.10
1958;DHT22;979;51.076;13.748;2024-03-06T14:35:01;15.20;47.50
1958;DHT22;979;51.076;13.748;2024-03-06T14:37:32;15.00;47.80
1958;DHT22;979;51.076;13.748;2024-03-06T14:40:10;14.80;48.10
1958;DHT22;979;51.076;13.748;2024-03-06T14:43:01;14.50;47.80
1958;DHT22;979;51.076;13.748;2024-03-06T14:45:42;14.30;48.30
1958;DHT22;979;51.076;13.748;2024-03-06T14:48:17;14.00;48.20
1958;DHT22;979;51.076;13.748;2024-03-06T14:50:49;13.70;48.50
1958;DHT22;979;51.076;13.748;2024-03-06T14:53:20;13.40;48.60
1958;DHT22;979;51.076;13.748;2024-03-06T14:56:07;13.00;48.80
1958;DHT22;979;51.076;13.748;2024-03-06T14:58:38;13.00;49.20
1958;DHT22;979;51.076;13.748;2024-03-06T15:01:09;13.00;49.50
1958;DHT22;979;51.076;13.748;2024-03-06T15:12:04;12.80;49.20
1958;DHT22;979;51.076;13.748;2024-03-06T15:14:55;12.90;49.90
1958;DHT22;979;51.076;13.748;2024-03-06T15:17:33;12.90;49.80
1958;DHT22;979;51.076;13.748;2024-03-06T15:26:02;12.50;49.10
1958;DHT22;979;51.076;13.748;2024-03-06T15:29:05;12.30;49.30
1958;DHT22;979;51.076;13.748;2024-03-06T15:36:34;12.20;49.30
1958;DHT22;979;51.076;13.748;2024-03-06T15:40:00;11.90;49.20
1958;DHT22;979;51.076;13.748;2024-03-06T15:42:42;11.80;49.40
1958;DHT22;979;51.076;13.748;2024-03-06T18:14:40;8.50;56.00
1958;DHT22;979;51.076;13.748;2024-03-06T18:17:25;8.50;56.20
1958;DHT22;979;51.076;13.748;2024-03-06T18:20:04;8.40;56.40
1958;DHT22;979;51.076;13.748;2024-03-06T18:23:29;8.40;56.10
1958;DHT22;979;51.076;13.748;2024-03-06T18:26:31;8.30;56.30
1958;DHT22;979;51.076;13.748;2024-03-06T19:38:11;7.00;56.80
1958;DHT22;979;51.076;13.748;2024-03-06T19:41:49;7.10;57.10
1958;DHT22;979;51.076;13.748;2024-03-06T19:44:31;7.30;57.40
1958;DHT22;979;51.076;13.748;2024-03-06T20:57:39;7.70;58.50
1958;DHT22;979;51.076;13.748;2024-03-06T21:49:48;8.30;58.90
1958;DHT22;979;51.076;13.748;2024-03-06T21:55:38;8.30;59.00
1958;DHT22;979;51.076;13.748;2024-03-06T21:58:09;8.40;59.40
1958;DHT22;979;51.076;13.748;2024-03-06T22:00:38;8.40;59.40
1958;DHT22;979;51.076;13.748;2024-03-06T22:03:06;8.40;59.30
1958;DHT22;979;51.076;13.748;2024-03-06T22:05:36;8.40;59.40
1958;DHT22;979;51.076;13.748;2024-03-06T22:08:05;8.40;59.40
1958;DHT22;979;51.076;13.748;2024-03-06T22:10:36;8.50;59.40
1958;DHT22;979;51.076;13.748;2024-03-06T22:13:04;8.70;59.60
1958;DHT22;979;51.076;13.748;2024-03-06T22:15:35;8.50;59.40
1958;DHT22;979;51.076;13.748;2024-03-06T22:18:07;8.70;59.70
1958;DHT22;979;51.076;13.748;2024-03-06T22:20:38;8.60;59.70
1958;DHT22;979;51.076;13.748;2024-03-06T22:23:08;8.60;60.50
1958;DHT22;979;51.076;13.748;2024-03-06T22:25:43;8.60;59.80
1958;DHT22;979;51.076;13.748;2024-03-06T22:28:16;8.60;59.70
1958;DHT22;979;51.076;13.748;2024-03-06T22:30:47;8.60;59.70
1958;DHT22;979;51.076;13.748;2024-03-06T22:33:20;8.70;59.70
1958;DHT22;979;51.076;13.748;2024-03-06T22:35:54;8.80;59.70
1958;DHT22;979;51.076;13.748;2024-03-06T22:38:24;8.70;59.50
1958;DHT22;979;51.076;13.748;2024-03-06T22:40:54;8.70;59.50
1958;DHT22;979;51.076;13.748;2024-03-06T22:43:25;8.70;59.60
1958;DHT22;979;51.076;13.748;2024-03-06T22:45:59;8.70;59.40
1958;DHT22;979;51.076;13.748;2024-03-06T22:48:44;8.70;59.70
1958;DHT22;979;51.076;13.748;2024-03-06T22:51:17;8.60;59.90
1958;DHT22;979;51.076;13.748;2024-03-06T22:53:46;8.60;59.90
1958;DHT22;979;51.076;13.748;2024-03-06T22:56:15;8.80;60.20
1958;DHT22;979;51.076;13.748;2024-03-06T22:58:45;8.60;60.20
1958;DHT22;979;51.076;13.748;2024-03-06T23:01:14;8.50;60.20
1958;DHT22;979;51.076;13.748;2024-03-06T23:03:51;8.40;60.40
1958;DHT22;979;51.076;13.748;2024-03-06T23:06:21;8.40;60.70
1958;DHT22;979;51.076;13.748;2024-03-06T23:08:50;8.30;60.90
1958;DHT22;979;51.076;13.748;2024-03-06T23:11:19;8.30;60.90
1958;DHT22;979;51.076;13.748;2024-03-06T23:13:48;8.30;61.20
1958;DHT22;979;51.076;13.748;2024-03-06T23:16:19;8.60;61.40
1958;DHT22;979;51.076;13.748;2024-03-06T23:18:50;8.30;61.10
1958;DHT22;979;51.076;13.748;2024-03-06T23:21:24;8.30;61.40
1958;DHT22;979;51.076;13.748;2024-03-06T23:23:53;8.20;61.60
1958;DHT22;979;51.076;13.748;2024-03-06T23:26:21;8.20;61.90
1958;DHT22;979;51.076;13.748;2024-03-06T23:28:53;8.20;62.00
1958;DHT22;979;51.076;13.748;2024-03-06T23:31:22;8.20;62.20
1958;DHT22;979;51.076;13.748;2024-03-06T23:33:51;8.20;62.30
1958;DHT22;979;51.076;13.748;2024-03-06T23:36:28;8.10;62.40
1958;DHT22;979;51.076;13.748;2024-03-06T23:38:57;8.10;62.20
1958;DHT22;979;51.076;13.748;2024-03-06T23:41:26;8.10;62.60
1958;DHT22;979;51.076;13.748;2024-03-06T23:43:57;8.10;62.80
1958;DHT22;979;51.076;13.748;2024-03-06T23:46:26;8.10;63.00
1958;DHT22;979;51.076;13.748;2024-03-06T23:48:59;8.10;63.00
1958;DHT22;979;51.076;13.748;2024-03-06T23:51:29;8.00;62.90
1958;DHT22;979;51.076;13.748;2024-03-06T23:53:58;8.00;64.00
1958;DHT22;979;51.076;13.748;2024-03-06T23:56:27;7.80;63.20
1958;DHT22;979;51.076;13.748;2024-03-06T23:58:59;7.80;63.40
